Flight Track Log - Related Links

Times and Time Zones

All times are in EDT time to prevent confusion due to time zone crossing. See the DAL6201 flight status page for this flight to view local times or setup timezone preferences in your user account.

Time Position Orientation Groundspeed Altitude Reporting Facility
EDT Latitude Longitude Course Direction KTS MPH feet Rate Location/Type
Tue 09:04:26 PM 40.4978 -80.1025 80° East 191 220 5,800  Level Cleveland Center
Tue 09:05:26 PM 40.5139 -80.0014 78° East 233 268 8,200 2,750 Climbing Cleveland Center
Tue 09:06:26 PM 40.5300 -79.8867 79° East 285 328 11,300 2,550 Climbing Cleveland Center
Tue 09:07:26 PM 40.5500 -79.7550 79° East 327 376 13,300 2,150 Climbing Cleveland Center
Tue 09:08:26 PM 40.5675 -79.6183 80° East 364 419 15,600 2,150 Climbing Cleveland Center
Tue 09:09:00 PM 40.5579 -79.2613 80° East  Level Estimated
Tue 09:09:26 PM 40.5892 -79.4703 79° East 391 450 17,600  Level Cleveland Center
Tue 09:10:26 PM 40.6106 -79.3167 80° East 409 471 19,600 2,200 Climbing Cleveland Center
Tue 09:11:26 PM 40.6317 -79.1631 80° East 421 484 22,000 2,024 Climbing Cleveland Center
Tue 09:13:15 PM 40.6656 -78.8706 81° East 423 487 25,300 1,412 Climbing New York Center
Tue 09:14:16 PM 40.6872 -78.7033 80° East 435 501 26,000 885 Climbing New York Center
Tue 09:15:17 PM 40.7092 -78.5278 81° East 465 535 27,100 1,240 Climbing New York Center
Tue 09:16:17 PM 40.7331 -78.3525 80° East 480 552 28,500 966 Climbing New York Center
Tue 09:17:15 PM 40.7981 -78.2169 58° Northeast 472 543 29,000 252 Climbing New York Center
Tue 09:18:16 PM 40.8736 -78.0769 54° Northeast 472 543 29,000  Level New York Center
Tue 09:19:15 PM 40.9208 -77.9144 69° East 467 537 29,000  Level New York Center
Tue 09:20:16 PM 40.9378 -77.7347 83° East 467 537 29,000  Level New York Center
Tue 09:21:17 PM 40.9522 -77.5575 84° East 480 552 29,000  Level New York Center
Tue 09:22:17 PM 40.9686 -77.3778 83° East 485 558 29,000 -508 Level New York Center
Tue 09:23:15 PM 40.9811 -77.1892 85° East 485 558 28,000 -1,424 Descending New York Center
Tue 09:24:15 PM 40.9964 -77.0231 83° East 469 540 26,200 -1,785 Descending New York Center
Tue 09:25:16 PM 41.0064 -76.8672 85° East 446 513 24,400 -1,770 Descending New York Center
Tue 09:26:17 PM 41.0425 -76.7328 70° East 396 456 22,600 -1,650 Descending New York Center
Tue 09:27:16 PM 41.0883 -76.6100 64° Northeast 382 440 21,100 -1,513 Descending New York Center
Tue 09:28:16 PM 41.0592 -76.4811 107° East 339 390 19,600 -1,450 Descending New York Center
Tue 09:29:16 PM 41.0017 -76.3772 126° Southeast 344 396 18,200 -800 Descending New York Center
Tue 09:30:16 PM 40.9342 -76.2589 127° Southeast 363 418 18,000 -545 Descending New York Center
Tue 09:31:17 PM 40.8978 -76.1436 113° Southeast 377 434 17,100 -1,311 Descending New York Center
Tue 09:32:15 PM 40.8625 -76.0008 108° East 369 425 15,400 -1,576 Descending New York Center
Tue 09:33:15 PM 40.8306 -75.8722 108° East 369 425 14,000 -1,200 Descending New York Center
Tue 09:34:15 PM 40.8006 -75.7464 107° East 369 425 13,000 -496 Descending New York Center
Tue 09:35:16 PM 40.7717 -75.6375 109° East 363 418 13,000  Level New York Center
Tue 09:36:17 PM 40.7378 -75.4981 108° East 358 412 13,000  Level New York Center
Tue 09:37:15 PM 40.7094 -75.3703 106° East 358 412 13,000 -303 Level New York Center
Tue 09:38:16 PM 40.6850 -75.2483 105° East 352 405 12,400 -885 Descending New York Center
Tue 09:39:17 PM 40.6597 -75.1425 107° East 342 394 11,200 -1,190 Descending New York Center
Tue 09:40:17 PM 40.5964 -75.0511 132° Southeast 312 359 10,000 -610 Descending New York Center
Tue 09:41:15 PM 40.5539 -74.9611 122° Southeast 301 346 10,000  Level New York Center
Tue 09:42:15 PM 40.5278 -74.8747 112° Southeast 272 313 10,000  Level New York Center
Tue 09:43:17 PM 40.5017 -74.7858 111° Southeast 258 297 10,000  Level New York Center
Tue 09:44:12 PM 40.4833 -74.7000 106° East 265 305 10,000 -365 Level New York TRACON
Tue 09:45:12 PM 40.4500 -74.6167 118° Southeast 262 302 9,300 -950 Descending New York TRACON
Tue 09:46:12 PM 40.4333 -74.5167 102° East 251 289 8,100 -645 Descending New York TRACON
Tue 09:47:13 PM 40.4167 -74.4333 105° East 238 274 8,000 -298 Descending New York TRACON
Tue 09:48:13 PM 40.4500 -74.3500 62° Northeast 237 273 7,500 -476 Descending New York TRACON
Tue 09:49:19 PM 40.4667 -74.2667 75° East 210 242 7,000 -762 Descending New York TRACON
Tue 09:50:19 PM 40.4667 -74.2000 90° East 198 228 5,900 -1,158 Descending New York TRACON
Tue 09:51:13 PM 40.4833 -74.1333 72° East 184 212 4,800 -1,300 Descending New York TRACON
Tue 09:52:19 PM 40.5167 -74.0833 49° Northeast 180 207 3,300 -1,050 Descending New York TRACON
Tue 09:53:13 PM 40.5500 -74.0667 21° North 165 190 2,700 -316 Descending New York TRACON
Tue 09:54:13 PM 40.6000 -74.0333 27° Northeast 171 197 2,700  Level New York TRACON
Tue 09:55:13 PM 40.6333 -74.0000 37° Northeast 165 190 2,700 -149 Level New York TRACON
Tue 09:56:14 PM 40.6667 -73.9667 37° Northeast 166 191 2,400 -619 Descending New York TRACON
Tue 09:57:19 PM 40.7167 -73.9333 27° Northeast 147 169 1,400 -762 Descending New York TRACON
Tue 09:58:20 PM 40.7333 -73.9000 57° Northeast 120 138 800 -590 Descending New York TRACON
Tue 10:00:00 PM 40.7667 -73.8667 30° Northeast  Level FlightAware Approximate
Tue 10:07:00 PM 40.7772 -73.8726 30° Northeast  Level Estimated
Tue 10:08:00 PM 40.7772 -73.8726 30° Northeast  Level Estimated

Login

Don't have an account? Register now (free) for customized features, flight alerts, and more!